createdAt,value
2023-05-18T00:01:14.888Z,2.70
2023-05-18T00:03:43.155Z,2.95
2023-05-18T00:06:11.150Z,3.13
2023-05-18T00:08:40.286Z,2.70
2023-05-18T00:11:08.047Z,2.88
2023-05-18T00:13:35.929Z,1.90
2023-05-18T00:16:03.744Z,2.40
2023-05-18T00:18:31.522Z,2.20
2023-05-18T00:20:59.707Z,3.67
2023-05-18T00:23:29.914Z,2.47
2023-05-18T00:26:00.502Z,2.90
2023-05-18T00:28:28.614Z,2.55
2023-05-18T00:30:56.937Z,3.17
2023-05-18T00:33:24.931Z,2.25
2023-05-18T00:35:52.658Z,2.58
2023-05-18T00:38:20.575Z,2.80
2023-05-18T00:40:48.383Z,2.22
2023-05-18T00:43:17.490Z,2.30
2023-05-18T00:45:45.388Z,2.92
2023-05-18T00:48:13.421Z,2.83
2023-05-18T00:50:41.452Z,2.65
2023-05-18T00:53:10.622Z,3.08
2023-05-18T00:55:38.621Z,3.22
2023-05-18T00:58:06.581Z,2.55
2023-05-18T01:00:37.736Z,2.97
2023-05-18T01:03:06.201Z,2.67
2023-05-18T01:05:34.016Z,3.13
2023-05-18T01:08:03.031Z,2.75
2023-05-18T01:10:35.238Z,3.05
2023-05-18T01:13:07.868Z,2.08
2023-05-18T01:15:39.979Z,2.78
2023-05-18T01:18:16.259Z,3.03
2023-05-18T01:20:48.369Z,2.25
2023-05-18T01:23:44.937Z,2.95
2023-05-18T01:26:16.888Z,3.95
2023-05-18T01:28:47.861Z,2.80
2023-05-18T01:31:16.450Z,3.22
2023-05-18T01:33:44.480Z,3.33
2023-05-18T01:36:12.472Z,2.55
2023-05-18T01:38:43.933Z,2.25
2023-05-18T01:41:19.740Z,3.38
2023-05-18T01:43:54.031Z,3.50
2023-05-18T01:46:35.910Z,2.30
2023-05-18T01:49:11.137Z,2.72
2023-05-18T01:51:44.965Z,2.30
2023-05-18T01:54:16.853Z,2.25
2023-05-18T01:56:48.306Z,2.92
2023-05-18T01:59:16.568Z,2.85
2023-05-18T02:01:45.218Z,3.38
2023-05-18T02:04:13.330Z,3.10
2023-05-18T02:06:41.151Z,3.17
2023-05-18T02:09:09.071Z,2.97
2023-05-18T02:11:36.900Z,2.95
2023-05-18T02:14:06.093Z,3.08
2023-05-18T02:16:33.861Z,2.45
2023-05-18T02:19:01.871Z,3.15
2023-05-18T02:21:29.760Z,2.80
2023-05-18T02:23:57.541Z,2.78
2023-05-18T02:26:25.284Z,2.58
2023-05-18T02:28:53.039Z,2.80
2023-05-18T02:31:22.327Z,3.63
2023-05-18T02:33:50.186Z,2.65
2023-05-18T02:36:18.630Z,3.22
2023-05-18T02:38:46.504Z,2.85
2023-05-18T02:41:14.250Z,2.78
2023-05-18T02:43:42.131Z,2.38
2023-05-18T02:46:09.919Z,2.60
2023-05-18T02:48:39.033Z,3.83
2023-05-18T02:51:06.844Z,3.05
2023-05-18T02:53:34.543Z,3.25
2023-05-18T02:56:03.761Z,2.83
2023-05-18T02:58:31.844Z,3.42
2023-05-18T03:01:00.407Z,3.38
2023-05-18T03:03:28.254Z,3.53
2023-05-18T03:05:57.437Z,2.75
2023-05-18T03:08:26.737Z,3.03
2023-05-18T03:10:54.539Z,3.20
2023-05-18T03:13:22.332Z,2.95
2023-05-18T03:15:50.982Z,3.80
2023-05-18T03:18:19.038Z,3.20
2023-05-18T03:20:46.830Z,3.42
2023-05-18T03:23:15.912Z,2.90
2023-05-18T03:25:44.758Z,2.80
2023-05-18T03:28:12.576Z,2.80
2023-05-18T03:30:40.463Z,2.47
2023-05-18T03:33:08.311Z,3.08
2023-05-18T03:35:36.209Z,2.22
2023-05-18T03:38:03.912Z,3.42
2023-05-18T03:40:33.089Z,2.95
2023-05-18T03:43:01.679Z,3.25
2023-05-18T03:45:29.813Z,2.88
2023-05-18T03:47:57.869Z,2.75
2023-05-18T03:50:25.789Z,3.22
2023-05-18T03:52:54.133Z,3.55
2023-05-18T03:55:22.239Z,3.22
2023-05-18T03:57:51.429Z,3.17
2023-05-18T04:00:19.993Z,2.60
2023-05-18T04:02:51.778Z,3.30
2023-05-18T04:05:20.623Z,3.65
2023-05-18T04:07:48.395Z,3.40
2023-05-18T04:10:17.209Z,3.15
2023-05-18T04:12:45.063Z,3.08
2023-05-18T04:15:14.569Z,3.65
2023-05-18T04:17:45.406Z,3.45
2023-05-18T04:20:14.476Z,2.72
2023-05-18T04:22:46.310Z,2.47
2023-05-18T04:25:14.460Z,2.78
2023-05-18T04:27:43.297Z,3.35
2023-05-18T04:30:12.679Z,3.88
2023-05-18T04:32:42.874Z,3.38
2023-05-18T04:35:12.654Z,3.88
2023-05-18T04:37:41.289Z,3.65
2023-05-18T04:40:13.422Z,2.70
2023-05-18T04:42:45.465Z,3.60
2023-05-18T04:45:15.886Z,3.90
2023-05-18T04:47:47.100Z,2.88
2023-05-18T04:50:16.255Z,3.55
2023-05-18T04:52:48.859Z,3.05
2023-05-18T04:55:22.884Z,3.08
2023-05-18T04:57:51.050Z,2.95
2023-05-18T05:00:19.742Z,3.28
2023-05-18T05:02:48.934Z,4.13
2023-05-18T05:05:16.797Z,3.50
2023-05-18T05:07:44.552Z,3.38
2023-05-18T05:10:12.518Z,3.55
2023-05-18T05:12:40.475Z,4.13
2023-05-18T05:15:09.818Z,3.40
2023-05-18T05:17:37.738Z,3.67
2023-05-18T05:20:08.168Z,3.47
2023-05-18T05:22:36.181Z,3.20
2023-05-18T05:25:06.061Z,2.55
2023-05-18T05:27:34.188Z,2.92
2023-05-18T05:30:02.049Z,4.00
2023-05-18T05:32:29.832Z,3.20
2023-05-18T05:34:57.626Z,4.13
2023-05-18T05:37:26.756Z,3.53
2023-05-18T05:39:54.697Z,2.92
2023-05-18T05:42:22.394Z,3.55
2023-05-18T05:44:50.243Z,3.38
2023-05-18T05:47:18.044Z,3.58
2023-05-18T05:49:45.763Z,3.88
2023-05-18T05:52:13.639Z,3.55
2023-05-18T05:54:43.155Z,3.08
2023-05-18T05:57:10.853Z,3.22
2023-05-18T05:59:38.665Z,3.60
2023-05-18T06:02:06.718Z,3.05
2023-05-18T06:04:34.573Z,3.30
2023-05-18T06:07:02.419Z,3.65
2023-05-18T06:09:30.158Z,3.38
2023-05-18T06:11:59.449Z,3.28
2023-05-18T06:14:27.320Z,2.78
2023-05-18T06:16:55.117Z,3.42
2023-05-18T06:19:23.092Z,3.42
2023-05-18T06:21:50.995Z,3.10
2023-05-18T06:24:18.783Z,2.60
2023-05-18T06:26:46.551Z,3.08
2023-05-18T06:29:15.744Z,2.63
2023-05-18T06:31:43.598Z,2.92
2023-05-18T06:34:11.407Z,3.15
2023-05-18T06:36:39.336Z,2.92
2023-05-18T06:39:07.119Z,3.13
2023-05-18T06:41:35.171Z,2.65
2023-05-18T06:44:02.906Z,2.75
2023-05-18T06:46:32.189Z,4.07
2023-05-18T06:49:00.065Z,2.25
2023-05-18T06:51:27.956Z,3.55
2023-05-18T06:53:55.933Z,3.00
2023-05-18T06:56:23.961Z,2.00
2023-05-18T06:58:51.676Z,3.38
2023-05-18T07:01:19.514Z,2.60
2023-05-18T07:03:48.760Z,2.70
2023-05-18T07:06:16.618Z,2.30
2023-05-18T07:08:45.434Z,2.88
2023-05-18T07:11:13.157Z,2.67
2023-05-18T07:13:40.913Z,3.13
2023-05-18T07:16:08.756Z,2.25
2023-05-18T07:18:36.673Z,3.20
2023-05-18T07:21:06.534Z,2.50
2023-05-18T07:23:34.263Z,2.15
2023-05-18T07:26:02.063Z,2.08
2023-05-18T07:28:29.926Z,2.05
2023-05-18T07:30:57.692Z,2.15
2023-05-18T07:33:25.525Z,2.13
2023-05-18T07:35:53.271Z,2.95
2023-05-18T07:38:22.438Z,2.17
2023-05-18T07:40:50.219Z,2.58
2023-05-18T07:43:17.979Z,2.38
2023-05-18T07:45:45.751Z,2.25
2023-05-18T07:48:13.691Z,2.38
2023-05-18T07:50:41.516Z,2.38
2023-05-18T07:53:09.279Z,2.90
2023-05-18T07:55:38.564Z,2.53
2023-05-18T07:58:06.813Z,2.08
2023-05-18T08:00:34.934Z,2.42
2023-05-18T08:03:02.855Z,2.63
2023-05-18T08:05:31.215Z,1.55
2023-05-18T08:07:59.228Z,2.72
2023-05-18T08:10:27.207Z,2.53
2023-05-18T08:12:56.319Z,2.95
2023-05-18T08:15:24.221Z,2.80
2023-05-18T08:17:52.259Z,2.55
2023-05-18T08:20:20.328Z,2.40
2023-05-18T08:22:48.118Z,2.78
2023-05-18T08:25:15.881Z,2.88
2023-05-18T08:27:43.685Z,2.47
2023-05-18T08:30:14.177Z,2.85
2023-05-18T08:32:42.065Z,2.40
2023-05-18T08:35:10.852Z,2.80
2023-05-18T08:37:39.712Z,3.08
2023-05-18T08:40:11.321Z,2.97
2023-05-18T08:42:49.507Z,4.03
2023-05-18T08:45:25.143Z,1.88
2023-05-18T08:47:56.839Z,3.13
2023-05-18T08:50:26.739Z,2.83
2023-05-18T08:52:57.016Z,2.97
2023-05-18T08:55:25.056Z,2.60
2023-05-18T08:57:56.821Z,2.15
2023-05-18T09:00:26.395Z,2.22
2023-05-18T09:02:54.638Z,2.83
2023-05-18T09:05:24.046Z,2.72
2023-05-18T09:07:52.659Z,3.20
2023-05-18T09:10:20.438Z,2.78
2023-05-18T09:12:49.899Z,2.92
2023-05-18T09:15:18.477Z,2.55
2023-05-18T09:17:47.672Z,3.17
2023-05-18T09:20:17.602Z,3.22
2023-05-18T09:22:45.392Z,2.55
2023-05-18T09:25:13.100Z,2.60
2023-05-18T09:27:41.421Z,2.50
2023-05-18T09:30:12.502Z,3.35
2023-05-18T09:32:40.788Z,2.30
2023-05-18T09:35:10.747Z,2.90
2023-05-18T09:37:42.779Z,2.15
2023-05-18T09:40:10.984Z,2.85
2023-05-18T09:42:39.634Z,2.95
2023-05-18T09:45:18.336Z,2.72
2023-05-18T09:47:46.360Z,3.67
2023-05-18T09:50:15.549Z,3.10
2023-05-18T09:52:44.238Z,2.47
2023-05-18T09:55:12.584Z,2.63
2023-05-18T09:57:42.573Z,2.35
2023-05-18T10:00:12.683Z,2.72
2023-05-18T10:02:42.318Z,2.53
2023-05-18T10:05:21.258Z,2.80
2023-05-18T10:07:49.668Z,2.70
2023-05-18T10:10:20.810Z,2.00
2023-05-18T10:12:49.330Z,2.40
2023-05-18T10:15:19.604Z,2.30
2023-05-18T10:17:48.067Z,1.77
2023-05-18T10:20:20.624Z,2.50
2023-05-18T10:22:50.022Z,3.00
2023-05-18T10:25:20.658Z,2.20
2023-05-18T10:27:50.445Z,2.53
2023-05-18T10:30:18.642Z,2.20
2023-05-18T10:32:46.878Z,2.97
2023-05-18T10:35:15.289Z,2.28
2023-05-18T10:37:48.391Z,2.97
2023-05-18T10:42:45.848Z,1.67
2023-05-18T10:45:13.786Z,2.13
2023-05-18T10:47:44.561Z,2.75
2023-05-18T10:50:12.430Z,2.55
2023-05-18T10:52:42.556Z,2.92
2023-05-18T10:55:12.619Z,2.70
2023-05-18T10:57:45.620Z,3.00
2023-05-18T11:00:14.368Z,2.90
2023-05-18T11:02:43.490Z,2.72
2023-05-18T11:05:12.562Z,2.47
2023-05-18T11:07:41.653Z,2.15
2023-05-18T11:10:12.583Z,2.55
2023-05-18T11:12:42.213Z,2.53
2023-05-18T11:15:10.705Z,2.50
2023-05-18T11:17:38.468Z,2.70
2023-05-18T11:20:14.251Z,2.85
2023-05-18T11:22:46.873Z,2.70
2023-05-18T11:25:49.616Z,2.38
2023-05-18T11:28:17.476Z,3.03
2023-05-18T11:30:50.970Z,2.97
2023-05-18T11:33:24.411Z,3.55
2023-05-18T11:36:11.671Z,3.05
2023-05-18T11:38:54.231Z,3.20
2023-05-18T11:41:34.164Z,3.27
2023-05-18T11:44:09.902Z,2.97
2023-05-18T11:46:37.905Z,3.00
2023-05-18T11:49:06.148Z,2.72
2023-05-18T11:51:34.213Z,2.83
2023-05-18T11:54:02.057Z,2.45
2023-05-18T11:56:34.647Z,2.65
2023-05-18T11:59:15.930Z,3.30
2023-05-18T12:01:44.574Z,2.85
2023-05-18T12:04:13.118Z,2.88
2023-05-18T12:06:41.226Z,3.28
2023-05-18T12:09:09.027Z,3.28
2023-05-18T12:11:39.037Z,3.03
2023-05-18T12:14:07.503Z,3.28
2023-05-18T12:16:37.773Z,3.00
2023-05-18T12:19:05.629Z,2.75
2023-05-18T12:21:36.871Z,3.08
2023-05-18T12:24:05.240Z,3.22
2023-05-18T12:26:33.093Z,2.88
2023-05-18T12:29:03.041Z,3.05
2023-05-18T12:31:31.716Z,2.70
2023-05-18T12:34:02.401Z,3.70
2023-05-18T12:36:30.563Z,2.85
2023-05-18T12:38:58.300Z,4.05
2023-05-18T12:41:27.478Z,3.10
2023-05-18T12:43:55.725Z,2.50
2023-05-18T12:46:25.649Z,3.35
2023-05-18T12:48:59.624Z,3.05
2023-05-18T12:51:31.486Z,2.85
2023-05-18T12:53:59.626Z,3.80
2023-05-18T12:56:28.492Z,3.20
2023-05-18T12:58:58.552Z,3.47
2023-05-18T13:01:28.126Z,3.20
2023-05-18T13:03:59.694Z,3.20
2023-05-18T13:06:27.524Z,2.50
2023-05-18T13:08:56.271Z,3.20
2023-05-18T13:11:27.700Z,2.67
2023-05-18T13:13:59.549Z,2.78
2023-05-18T13:16:30.232Z,3.08
2023-05-18T13:19:00.290Z,3.53
2023-05-18T13:21:28.510Z,3.00
2023-05-18T13:23:56.271Z,2.75
2023-05-18T13:26:25.255Z,2.92
2023-05-18T13:28:54.676Z,3.47
2023-05-18T13:31:23.231Z,3.15
2023-05-18T13:33:52.530Z,3.88
2023-05-18T13:36:20.464Z,3.50
2023-05-18T13:38:48.344Z,3.47
2023-05-18T13:41:16.178Z,3.60
2023-05-18T13:43:43.992Z,3.53
2023-05-18T13:46:11.747Z,2.90
2023-05-18T13:48:39.560Z,2.55
2023-05-18T13:51:08.744Z,2.83
2023-05-18T13:53:38.010Z,3.15
2023-05-18T13:56:06.822Z,2.45
2023-05-18T13:58:36.064Z,3.15
2023-05-18T14:01:07.989Z,2.70
2023-05-18T14:03:36.564Z,2.65
2023-05-18T14:06:04.753Z,3.20
2023-05-18T14:08:33.913Z,3.05
2023-05-18T14:13:29.469Z,3.00
2023-05-18T14:15:57.218Z,3.58
2023-05-18T14:18:24.931Z,2.65
2023-05-18T14:20:52.694Z,3.05
2023-05-18T14:23:20.557Z,2.97
2023-05-18T14:25:49.639Z,3.00
2023-05-18T14:28:17.631Z,3.97
2023-05-18T14:30:45.617Z,3.05
2023-05-18T14:33:13.584Z,3.40
2023-05-18T14:35:41.449Z,2.83
2023-05-18T14:38:09.159Z,3.97
2023-05-18T14:40:36.919Z,3.55
2023-05-18T14:43:06.051Z,2.70
2023-05-18T14:45:33.871Z,3.67
2023-05-18T14:48:01.771Z,2.92
2023-05-18T14:50:29.898Z,2.75
2023-05-18T14:52:57.826Z,2.30
2023-05-18T14:55:25.576Z,3.53
2023-05-18T14:57:53.410Z,3.13
2023-05-18T15:00:22.970Z,2.95
2023-05-18T15:02:50.832Z,3.45
2023-05-18T15:05:18.945Z,3.08
2023-05-18T15:07:46.675Z,2.80
2023-05-18T15:10:14.420Z,2.50
2023-05-18T15:12:42.268Z,2.83
2023-05-18T15:15:10.764Z,2.30
2023-05-18T15:17:39.900Z,3.15
2023-05-18T15:20:09.009Z,3.10
2023-05-18T15:22:38.227Z,3.20
2023-05-18T15:25:08.016Z,3.13
2023-05-18T15:27:35.980Z,3.97
2023-05-18T15:30:06.845Z,3.03
2023-05-18T15:32:34.612Z,3.33
2023-05-18T15:35:03.873Z,2.95
2023-05-18T15:37:31.591Z,4.40
2023-05-18T15:39:59.548Z,3.42
2023-05-18T15:42:28.050Z,2.75
2023-05-18T15:44:55.916Z,3.92
2023-05-18T15:47:23.677Z,4.18
2023-05-18T15:49:51.441Z,3.10
2023-05-18T15:52:20.556Z,3.30
2023-05-18T15:54:48.372Z,2.92
2023-05-18T15:57:16.297Z,3.20
2023-05-18T15:59:44.130Z,2.72
2023-05-18T16:02:11.910Z,3.30
2023-05-18T16:04:40.062Z,2.97
2023-05-18T16:07:07.928Z,3.40
2023-05-18T16:09:37.120Z,2.88
2023-05-18T16:12:05.500Z,2.60
2023-05-18T16:14:33.292Z,2.67
2023-05-18T16:17:02.247Z,3.38
2023-05-18T16:19:30.129Z,2.72
2023-05-18T16:21:57.946Z,2.97
2023-05-18T16:24:25.695Z,2.55
2023-05-18T16:26:54.839Z,2.55
2023-05-18T16:29:22.536Z,2.35
2023-05-18T16:31:51.887Z,2.70
2023-05-18T16:34:19.858Z,3.20
2023-05-18T16:36:47.685Z,2.78
2023-05-18T16:39:16.340Z,1.80
2023-05-18T16:41:44.079Z,2.88
2023-05-18T16:44:13.184Z,3.13
2023-05-18T16:46:40.950Z,3.08
2023-05-18T16:49:08.771Z,1.98
2023-05-18T16:51:36.522Z,2.00
2023-05-18T16:54:06.099Z,1.65
2023-05-18T16:56:35.728Z,2.25
2023-05-18T16:59:03.509Z,2.00
2023-05-18T17:01:32.667Z,1.70
2023-05-18T17:04:00.540Z,2.17
2023-05-18T17:06:28.545Z,2.35
2023-05-18T17:08:58.666Z,1.73
2023-05-18T17:11:27.704Z,2.10
2023-05-18T17:13:55.704Z,2.03
2023-05-18T17:16:23.564Z,2.47
2023-05-18T17:18:54.486Z,1.88
2023-05-18T17:21:23.691Z,2.10
2023-05-18T17:23:51.439Z,2.10
2023-05-18T17:26:20.059Z,2.20
2023-05-18T17:28:47.804Z,1.50
2023-05-18T17:31:15.726Z,2.55
2023-05-18T17:33:47.104Z,1.35
2023-05-18T17:36:18.011Z,1.55
2023-05-18T17:38:46.821Z,2.00
2023-05-18T17:41:14.680Z,1.42
2023-05-18T17:43:42.503Z,1.92
2023-05-18T17:46:10.243Z,1.52
2023-05-18T17:48:37.953Z,2.13
2023-05-18T17:51:05.956Z,1.70
2023-05-18T17:53:35.097Z,1.83
2023-05-18T17:56:02.937Z,2.50
2023-05-18T17:58:30.717Z,1.27
2023-05-18T18:00:58.628Z,1.65
2023-05-18T18:03:26.592Z,1.70
2023-05-18T18:05:54.699Z,1.92
2023-05-18T18:08:22.478Z,1.80
2023-05-18T18:10:52.670Z,1.88
2023-05-18T18:13:20.418Z,1.92
2023-05-18T18:15:48.181Z,1.40
2023-05-18T18:18:15.952Z,1.63
2023-05-18T18:20:44.159Z,2.55
2023-05-18T18:23:12.247Z,1.42
2023-05-18T18:25:40.046Z,1.20
2023-05-18T18:28:14.577Z,1.67
2023-05-18T18:30:44.188Z,1.27
2023-05-18T18:33:12.366Z,1.67
2023-05-18T18:35:40.591Z,1.08
2023-05-18T18:38:08.969Z,1.52
2023-05-18T18:40:36.749Z,1.38
2023-05-18T18:43:04.595Z,1.10
2023-05-18T18:45:33.870Z,1.33
2023-05-18T18:48:02.748Z,1.80
2023-05-18T18:50:30.828Z,1.50
2023-05-18T18:52:58.826Z,1.33
2023-05-18T18:55:26.642Z,1.58
2023-05-18T18:57:55.550Z,1.05
2023-05-18T19:00:23.786Z,1.27
2023-05-18T19:02:52.930Z,1.20
2023-05-18T19:05:23.353Z,1.27
2023-05-18T19:07:55.028Z,1.13
2023-05-18T19:10:23.700Z,1.40
2023-05-18T19:12:51.458Z,1.20
2023-05-18T19:15:21.258Z,1.30
2023-05-18T19:17:52.051Z,1.80
2023-05-18T19:20:21.941Z,1.20
2023-05-18T19:22:49.866Z,1.10
2023-05-18T19:25:17.685Z,0.95
2023-05-18T19:27:45.675Z,1.25
2023-05-18T19:30:16.541Z,1.40
2023-05-18T19:32:44.327Z,1.38
2023-05-18T19:35:12.093Z,1.10
2023-05-18T19:37:41.223Z,1.25
2023-05-18T19:40:09.630Z,1.20
2023-05-18T19:42:37.444Z,1.50
2023-05-18T19:45:05.996Z,1.27
2023-05-18T19:47:33.817Z,1.08
2023-05-18T19:50:01.955Z,1.50
2023-05-18T19:52:29.720Z,1.60
2023-05-18T19:54:58.814Z,1.85
2023-05-18T19:57:26.559Z,1.20
2023-05-18T19:59:54.429Z,0.90
2023-05-18T20:02:22.281Z,0.93
2023-05-18T20:04:50.118Z,1.00
2023-05-18T20:07:20.374Z,0.98
2023-05-18T20:09:48.187Z,1.27
2023-05-18T20:12:17.311Z,1.17
2023-05-18T20:14:45.829Z,1.02
2023-05-18T20:17:13.971Z,1.20
2023-05-18T20:19:49.846Z,1.00
2023-05-18T20:22:17.938Z,1.15
2023-05-18T20:24:46.084Z,1.20
2023-05-18T20:27:15.170Z,1.42
2023-05-18T20:29:44.334Z,1.20
2023-05-18T20:32:12.113Z,1.60
2023-05-18T20:34:40.555Z,0.95
2023-05-18T20:37:10.967Z,1.20
2023-05-18T20:39:39.887Z,1.40
2023-05-18T20:42:12.778Z,1.20
2023-05-18T20:44:40.639Z,1.10
2023-05-18T20:47:11.204Z,1.20
2023-05-18T20:49:39.147Z,1.10
2023-05-18T20:52:07.224Z,0.82
2023-05-18T20:54:34.945Z,1.40
2023-05-18T20:57:03.070Z,1.52
2023-05-18T20:59:31.275Z,1.35
2023-05-18T21:01:59.167Z,1.48
2023-05-18T21:04:28.407Z,1.83
2023-05-18T21:06:56.229Z,1.10
2023-05-18T21:09:23.976Z,1.15
2023-05-18T21:11:51.730Z,1.17
2023-05-18T21:14:19.559Z,1.55
2023-05-18T21:16:47.300Z,1.00
2023-05-18T21:19:15.114Z,1.52
2023-05-18T21:21:44.269Z,1.45
2023-05-18T21:24:12.003Z,1.20
2023-05-18T21:26:40.960Z,0.95
2023-05-18T21:29:09.852Z,1.50
2023-05-18T21:31:37.728Z,1.00
2023-05-18T21:34:05.613Z,1.33
2023-05-18T21:36:34.632Z,1.70
2023-05-18T21:39:05.496Z,1.13
2023-05-18T21:41:35.256Z,1.20
2023-05-18T21:44:03.271Z,1.63
2023-05-18T21:46:32.444Z,1.50
2023-05-18T21:49:00.371Z,1.25
2023-05-18T21:51:31.222Z,1.00
2023-05-18T21:53:59.505Z,1.58
2023-05-18T21:56:29.829Z,1.08
2023-05-18T21:58:58.027Z,1.17
2023-05-18T22:01:25.888Z,1.20
2023-05-18T22:03:54.090Z,1.10
2023-05-18T22:06:21.929Z,1.20
2023-05-18T22:08:49.765Z,1.00
2023-05-18T22:11:17.535Z,1.00
2023-05-18T22:13:46.861Z,1.52
2023-05-18T22:16:14.648Z,1.05
2023-05-18T22:18:42.395Z,1.40
2023-05-18T22:21:10.186Z,0.80
2023-05-18T22:23:39.093Z,0.98
2023-05-18T22:26:07.097Z,1.02
2023-05-18T22:28:35.011Z,1.42
2023-05-18T22:31:04.140Z,1.30
2023-05-18T22:33:31.913Z,1.02
2023-05-18T22:35:59.715Z,1.52
2023-05-18T22:38:27.789Z,1.42
2023-05-18T22:40:55.569Z,1.00
2023-05-18T22:43:23.360Z,0.93
2023-05-18T22:45:51.229Z,1.38
2023-05-18T22:48:20.493Z,1.13
2023-05-18T22:50:48.280Z,1.00
2023-05-18T22:53:16.000Z,1.45
2023-05-18T22:55:43.914Z,1.08
2023-05-18T22:58:11.700Z,1.48
2023-05-18T23:00:39.413Z,2.45
2023-05-18T23:03:07.196Z,1.27
2023-05-18T23:05:40.971Z,1.70
2023-05-18T23:08:09.633Z,1.55
2023-05-18T23:10:37.640Z,1.80
2023-05-18T23:13:05.408Z,0.98
2023-05-18T23:15:33.197Z,1.20
2023-05-18T23:18:01.048Z,1.25
2023-05-18T23:20:28.854Z,1.00
2023-05-18T23:22:58.038Z,1.73
2023-05-18T23:25:25.996Z,1.65
2023-05-18T23:27:53.784Z,0.90
2023-05-18T23:30:21.596Z,0.90
2023-05-18T23:32:50.176Z,1.40
2023-05-18T23:35:19.240Z,1.45
2023-05-18T23:37:49.893Z,2.53
2023-05-18T23:40:20.141Z,1.02
2023-05-18T23:42:48.385Z,1.13
2023-05-18T23:45:17.082Z,1.23
2023-05-18T23:47:46.274Z,1.10
2023-05-18T23:50:15.801Z,2.10
2023-05-18T23:52:47.087Z,1.38
2023-05-18T23:55:15.539Z,1.30
2023-05-18T23:57:45.424Z,1.30
